Time;durP1;ratioP1;P1;durP2;ratioP2;P2;SDS_P1;SDS_P2;PMS_P1;PMS_P2;Temp;Humidity;BMP_temperature;BMP_pressure;BME280_temperature;BME280_humidity;BME280_pressure;Samples;Min_cycle;Max_cycle;Signal;HPM_P1;HPM_P2
2021/11/25 00:00:52;;;;;;;14.73;10.30;;;7.10;99.90;;;6.99;66.91;101060.72;4996523;28;20183;-76
2021/11/25 00:03:22;;;;;;;11.45;9.27;;;7.00;99.90;;;7.13;65.68;101057.28;4996474;28;20222;-76
2021/11/25 00:05:51;;;;;;;13.60;11.15;;;7.10;99.90;;;7.23;65.33;101060.59;4996472;28;20175;-75
2021/11/25 00:08:20;;;;;;;13.13;10.32;;;7.20;99.90;;;7.20;65.38;101058.28;4996347;28;20201;-74
2021/11/25 00:10:49;;;;;;;11.98;8.23;;;7.20;99.90;;;7.17;65.40;101055.06;4996067;28;20628;-73
2021/11/25 00:13:18;;;;;;;15.40;11.63;;;7.20;99.90;;;7.05;66.05;101056.50;4978375;28;20702;-74
2021/11/25 00:15:46;;;;;;;11.10;8.60;;;7.10;99.90;;;7.06;65.56;101047.41;4995555;28;20292;-75
2021/11/25 00:18:18;;;;;;;14.55;10.43;;;7.10;99.90;;;7.14;65.82;101050.06;4995462;28;20293;-74
2021/11/25 00:20:48;;;;;;;11.20;8.57;;;7.00;99.90;;;7.01;65.40;101039.88;4995610;28;20246;-74
2021/11/25 00:23:17;;;;;;;12.82;10.35;;;7.00;99.90;;;6.95;65.79;101040.56;4977848;28;20582;-74
2021/11/25 00:25:46;;;;;;;13.13;9.43;;;7.00;99.90;;;6.89;65.90;101038.56;4995641;28;20198;-74
2021/11/25 00:28:15;;;;;;;13.70;10.05;;;6.90;99.90;;;6.82;66.41;101034.91;4995630;28;20179;-73
2021/11/25 00:30:44;;;;;;;11.60;9.27;;;6.90;99.90;;;6.90;65.92;101026.81;4995991;28;20180;-74
2021/11/25 00:33:12;;;;;;;12.75;9.23;;;6.90;99.90;;;6.94;65.91;101020.06;4996157;28;20266;-74
2021/11/25 00:35:43;;;;;;;10.80;9.07;;;6.90;99.90;;;6.93;65.54;101018.38;4996082;28;20187;-74
2021/11/25 00:38:13;;;;;;;11.38;9.68;;;6.90;99.90;;;6.99;65.46;101018.50;4996493;28;20195;-74
2021/11/25 00:40:42;;;;;;;13.27;10.07;;;6.90;99.90;;;6.95;65.84;101014.50;4981315;28;20191;-74
2021/11/25 00:43:11;;;;;;;11.80;9.25;;;6.90;99.90;;;6.92;65.59;101008.66;4980224;28;20215;-75
2021/11/25 00:45:40;;;;;;;12.48;9.63;;;6.90;99.90;;;6.80;65.77;101001.97;4998357;28;20164;-75
2021/11/25 00:48:10;;;;;;;13.60;8.85;;;6.90;99.90;;;6.75;66.58;100999.78;4996225;28;20175;-75
2021/11/25 00:50:39;;;;;;;10.45;9.00;;;6.80;1.00;;;6.77;66.42;101000.47;4997110;28;20195;-74
2021/11/25 00:53:09;;;;;;;12.93;9.30;;;6.80;99.90;;;6.66;65.98;100991.94;4997626;28;20234;-73
2021/11/25 00:55:40;;;;;;;10.75;9.35;;;6.70;1.00;;;6.74;66.10;100990.03;4995671;28;20459;-73
2021/11/25 00:58:08;;;;;;;11.95;9.40;;;6.80;99.90;;;6.82;64.53;100987.34;4996147;28;20214;-74
2021/11/25 01:00:40;;;;;;;9.75;8.70;;;6.80;99.90;;;6.87;65.00;100982.25;4995271;28;20190;-74
2021/11/25 01:03:10;;;;;;;11.65;8.20;;;6.90;99.90;;;7.02;64.56;100979.63;4994970;28;20290;-75
2021/11/25 01:05:39;;;;;;;9.90;7.45;;;7.00;99.90;;;7.11;63.39;100991.22;4995308;28;20681;-75
2021/11/25 01:08:08;;;;;;;8.05;6.85;;;7.00;99.90;;;6.86;63.55;100979.75;4994959;28;20187;-75
2021/11/25 01:10:38;;;;;;;8.10;6.75;;;6.90;99.90;;;6.74;63.28;100971.22;4977069;28;20290;-73
2021/11/25 01:13:07;;;;;;;6.60;5.97;;;6.80;99.90;;;6.78;63.09;100977.06;4994812;28;20687;-73
2021/11/25 01:15:37;;;;;;;8.43;5.97;;;6.80;99.90;;;6.69;63.37;100967.38;4996296;28;20182;-74
2021/11/25 01:18:10;;;;;;;6.72;5.95;;;6.70;99.90;;;6.77;63.58;100970.03;4996689;28;20391;-73
2021/11/25 01:20:42;;;;;;;7.80;7.00;;;6.80;99.90;;;6.72;63.59;100964.34;4997145;28;20175;-75
2021/11/25 01:23:15;;;;;;;7.00;6.35;;;6.70;99.90;;;6.78;62.89;100966.31;4996868;28;20249;-74
2021/11/25 01:25:47;;;;;;;7.15;6.45;;;6.70;99.90;;;6.77;62.97;100956.59;4996388;28;20338;-73
2021/11/25 01:28:17;;;;;;;6.75;5.72;;;6.70;99.90;;;6.76;62.63;100955.75;4978988;28;20205;-75
2021/11/25 01:30:50;;;;;;;7.57;6.72;;;6.70;99.90;;;6.69;63.10;100946.69;4999369;28;20182;-77
2021/11/25 01:33:21;;;;;;;7.38;6.38;;;6.70;99.90;;;6.58;62.52;100933.66;4999832;28;20214;-75
2021/11/25 01:35:50;;;;;;;7.85;7.07;;;6.70;99.90;;;6.89;62.18;100934.50;4983445;28;20183;-75
2021/11/25 01:38:19;;;;;;;8.43;6.40;;;6.80;99.90;;;6.83;61.95;100932.50;4995881;28;20229;-75
2021/11/25 01:40:51;;;;;;;6.97;6.07;;;6.80;99.90;;;6.71;62.64;100927.72;5008846;28;20202;-76
2021/11/25 01:43:25;;;;;;;7.15;5.97;;;6.80;99.90;;;6.62;62.59;100929.59;5010351;28;20632;-75
2021/11/25 01:45:57;;;;;;;6.78;6.15;;;6.70;99.90;;;6.53;63.15;100926.09;4993070;28;20630;-75
2021/11/25 01:48:27;;;;;;;8.13;7.40;;;6.60;99.90;;;6.64;63.79;100910.59;5008666;28;20456;-76
2021/11/25 01:50:56;;;;;;;8.07;6.88;;;6.60;99.90;;;6.67;63.42;100910.25;4998448;28;20262;-75
2021/11/25 01:53:25;;;;;;;8.45;6.88;;;6.70;99.90;;;6.76;63.14;100904.66;4995897;28;20298;-75
2021/11/25 01:55:55;;;;;;;7.70;7.00;;;6.70;99.90;;;6.62;62.95;100905.41;4996151;28;20262;-75
2021/11/25 01:58:24;;;;;;;6.85;6.22;;;6.60;99.90;;;6.48;63.01;100898.94;4978507;28;20671;-76
2021/11/25 02:00:56;;;;;;;7.80;7.10;;;6.60;99.90;;;6.48;63.25;100898.94;4995478;28;20175;-75
2021/11/25 02:03:28;;;;;;;8.20;7.32;;;6.50;99.90;;;6.45;63.19;100901.94;4995114;28;20213;-75
2021/11/25 02:05:57;;;;;;;10.32;8.13;;;6.50;99.90;;;6.61;62.99;100892.13;4994830;28;20230;-76
2021/11/25 02:08:27;;;;;;;8.13;7.32;;;6.60;99.90;;;6.68;63.26;100898.50;4995576;28;20278;-75
2021/11/25 02:11:00;;;;;;;7.20;6.50;;;6.60;99.90;;;6.86;62.09;100896.34;5001888;28;20175;-76
2021/11/25 02:13:29;;;;;;;8.70;7.43;;;6.80;99.90;;;6.70;63.05;100885.69;4989330;28;20466;-76
2021/11/25 02:15:59;;;;;;;7.82;7.05;;;6.70;99.90;;;6.49;62.61;100876.38;4991013;28;20205;-77
2021/11/25 02:18:29;;;;;;;10.70;7.10;;;6.60;99.90;;;6.46;62.58;100875.91;5009929;28;20225;-75
2021/11/25 02:21:02;;;;;;;8.57;7.68;;;6.50;99.90;;;6.52;62.25;100868.00;5010159;28;20190;-74
2021/11/25 02:23:31;;;;;;;10.23;7.55;;;6.50;99.90;;;6.60;61.40;100860.88;4995296;28;20218;-75
2021/11/25 02:26:01;;;;;;;8.10;7.30;;;6.60;99.90;;;6.70;61.66;100861.50;4993610;28;20254;-74
2021/11/25 02:28:34;;;;;;;8.00;7.20;;;6.70;99.90;;;6.64;62.10;100857.66;5010623;28;20186;-74
2021/11/25 02:31:05;;;;;;;8.77;7.70;;;6.60;99.90;;;6.55;62.86;100856.88;4992493;28;20191;-75
2021/11/25 02:33:34;;;;;;;7.78;6.93;;;6.60;99.90;;;6.73;61.62;100850.41;5009893;28;20211;-76
2021/11/25 02:36:05;;;;;;;10.00;8.68;;;6.70;99.90;;;6.48;62.67;100847.84;5013362;28;20198;-76
2021/11/25 02:38:34;;;;;;;10.00;8.40;;;6.60;99.90;;;6.56;62.94;100841.59;5013555;28;20210;-74
2021/11/25 02:41:04;;;;;;;10.82;9.20;;;6.60;99.90;;;6.55;62.49;100843.44;5012705;28;20175;-74
2021/11/25 02:43:36;;;;;;;11.13;10.10;;;6.60;99.90;;;6.46;62.90;100840.97;5014454;28;20246;-75
2021/11/25 02:46:07;;;;;;;10.98;9.88;;;6.50;99.90;;;6.47;63.59;100834.59;5016301;28;20179;-77
2021/11/25 02:48:43;;;;;;;11.30;10.30;;;6.50;99.90;;;6.36;63.25;100825.06;5016826;28;20189;-76
2021/11/25 02:51:17;;;;;;;14.20;12.85;;;6.40;99.90;;;6.31;63.21;100827.44;5016190;28;20167;-75
2021/11/25 02:53:47;;;;;;;11.32;10.00;;;6.30;99.90;;;6.40;62.69;100812.94;5015114;28;20235;-75
2021/11/25 02:56:20;;;;;;;13.73;12.45;;;6.40;99.90;;;6.42;62.50;100812.78;5013032;28;20206;-75
2021/11/25 02:58:51;;;;;;;13.25;11.88;;;6.50;99.90;;;6.47;61.89;100808.53;5013906;28;20213;-75
2021/11/25 03:01:23;;;;;;;14.43;12.93;;;6.40;99.90;;;6.32;61.89;100809.47;4988893;28;20206;-75
2021/11/25 03:03:53;;;;;;;15.00;13.35;;;6.40;99.90;;;6.25;62.20;100812.00;5000146;28;20227;-74
2021/11/25 03:06:24;;;;;;;14.68;12.18;;;6.30;99.90;;;6.34;61.44;100799.38;4998664;28;20500;-77
2021/11/25 03:08:54;;;;;;;14.32;12.77;;;6.30;99.90;;;6.22;61.23;100793.56;4997752;28;20182;-74
2021/11/25 03:11:26;;;;;;;16.35;13.20;;;6.30;99.90;;;6.10;61.27;100792.28;5002227;28;20175;-76
2021/11/25 03:13:59;;;;;;;18.52;13.93;;;6.10;99.90;;;6.06;61.05;100791.78;5001354;28;20211;-75
2021/11/25 03:16:28;;;;;;;15.15;13.55;;;6.10;99.90;;;6.00;61.27;100787.09;5001855;28;20198;-75
2021/11/25 03:18:57;;;;;;;17.10;15.40;;;6.10;99.90;;;6.01;61.53;100791.47;5007259;28;20203;-74
2021/11/25 03:21:28;;;;;;;16.20;14.63;;;6.00;99.90;;;6.03;61.03;100783.25;5008094;28;20187;-76
2021/11/25 03:23:58;;;;;;;17.02;15.40;;;6.10;99.90;;;5.99;61.49;100780.09;5004138;28;20592;-76
2021/11/25 03:26:29;;;;;;;18.23;15.05;;;6.00;99.90;;;5.99;61.34;100787.31;5000065;28;20265;-76
2021/11/25 03:29:00;;;;;;;19.65;17.58;;;6.00;99.90;;;6.11;61.00;100786.72;4999869;28;20214;-76
2021/11/25 03:31:33;;;;;;;20.52;17.75;;;6.10;99.90;;;5.97;61.88;100784.78;4997563;28;20202;-76
2021/11/25 03:34:04;;;;;;;20.13;18.17;;;6.00;99.90;;;6.04;60.94;100777.72;4999417;28;20230;-75
2021/11/25 03:36:34;;;;;;;19.42;17.35;;;6.00;99.90;;;6.22;60.42;100776.59;5000817;28;20175;-76
2021/11/25 03:39:04;;;;;;;21.15;18.48;;;6.20;99.90;;;6.11;60.80;100775.97;5005490;28;20205;-74
2021/11/25 03:41:33;;;;;;;17.83;15.98;;;6.10;99.90;;;5.99;61.78;100768.50;5008046;28;20277;-75
2021/11/25 03:44:02;;;;;;;18.67;16.88;;;6.10;99.90;;;6.00;61.07;100762.13;5005417;28;20226;-75
2021/11/25 03:46:33;;;;;;;18.02;16.17;;;6.00;99.90;;;6.10;60.54;100760.03;5002103;28;20696;-75
2021/11/25 03:49:02;;;;;;;21.23;18.95;;;6.10;99.90;;;6.00;60.77;100757.56;5001588;28;20574;-77
2021/11/25 03:51:31;;;;;;;23.40;19.35;;;6.00;99.90;;;5.86;60.70;100744.84;4984416;28;20183;-76
2021/11/25 03:54:02;;;;;;;25.20;20.00;;;5.90;99.90;;;5.72;61.24;100753.63;5001280;28;20269;-75
2021/11/25 03:56:30;;;;;;;22.75;19.42;;;5.80;99.90;;;6.00;60.77;100746.81;4998971;28;20175;-76
2021/11/25 03:59:00;;;;;;;20.08;18.02;;;5.90;99.90;;;5.87;60.90;100740.34;4995931;28;20222;-76
2021/11/25 04:01:29;;;;;;;22.17;19.45;;;5.90;99.90;;;5.78;61.70;100736.00;4997578;28;20175;-76
2021/11/25 04:03:58;;;;;;;18.52;16.58;;;5.90;99.90;;;5.88;60.94;100736.66;4996607;28;20213;-77
2021/11/25 04:06:27;;;;;;;22.10;19.77;;;5.90;99.90;;;5.87;61.06;100729.59;4998327;28;20668;-77
2021/11/25 04:08:57;;;;;;;24.00;19.13;;;5.90;99.90;;;5.83;60.69;100722.88;4982148;28;20187;-76
2021/11/25 04:11:27;;;;;;;21.77;19.40;;;5.90;99.90;;;5.78;60.93;100719.88;4999252;28;20194;-74
2021/11/25 04:13:57;;;;;;;23.27;19.90;;;5.80;99.90;;;5.68;60.88;100720.94;4982963;28;20215;-76
2021/11/25 04:16:26;;;;;;;26.55;19.92;;;5.70;99.90;;;5.73;60.92;100716.88;4999193;28;20235;-77
2021/11/25 04:18:55;;;;;;;23.83;21.30;;;5.70;99.90;;;5.62;61.78;100715.41;4999357;28;20195;-75
2021/11/25 04:21:24;;;;;;;21.42;18.90;;;5.70;99.90;;;5.65;60.52;100709.72;4999511;28;20167;-76
2021/11/25 04:23:53;;;;;;;23.15;18.77;;;5.70;99.90;;;5.71;59.71;100708.19;4999049;28;20209;-75
2021/11/25 04:26:22;;;;;;;23.33;19.25;;;5.70;99.90;;;5.80;60.14;100717.88;4998663;28;20218;-74
2021/11/25 04:28:52;;;;;;;24.08;20.73;;;5.80;99.90;;;5.83;59.75;100717.50;4998548;28;20548;-76
2021/11/25 04:36:57;;;;;;;25.08;22.48;;;5.70;99.90;;;5.69;60.62;100700.31;4980022;28;20175;-74
2021/11/25 04:39:26;;;;;;;26.83;23.75;;;5.70;99.90;;;5.59;60.37;100695.16;4978930;28;20198;-77
2021/11/25 04:41:55;;;;;;;26.40;22.08;;;5.70;99.90;;;5.60;60.14;100694.16;4979123;28;20206;-76
2021/11/25 04:44:26;;;;;;;32.92;29.35;;;5.60;99.90;;;5.65;60.72;100688.25;4978923;28;20211;-76
2021/11/25 04:46:55;;;;;;;34.03;25.50;;;5.70;99.90;;;5.66;60.72;100690.72;4965649;28;20191;-75
2021/11/25 04:49:24;;;;;;;26.83;22.40;;;5.70;99.90;;;5.67;60.62;100688.88;4979847;28;20183;-75
2021/11/25 04:51:53;;;;;;;29.58;24.23;;;5.70;99.90;;;5.61;60.45;100689.63;4979519;28;20168;-75
2021/11/25 04:54:22;;;;;;;28.38;22.67;;;5.70;99.90;;;5.51;61.32;100686.31;4978634;28;20221;-76
2021/11/25 04:56:51;;;;;;;26.60;22.77;;;5.60;99.90;;;5.53;61.02;100685.09;4979872;28;20638;-75
2021/11/25 04:59:20;;;;;;;30.23;25.25;;;5.60;99.90;;;5.55;60.33;100693.00;4980585;28;20200;-76
2021/11/25 05:01:51;;;;;;;30.35;26.05;;;5.60;99.90;;;5.61;60.41;100685.09;4962926;28;20252;-75
2021/11/25 05:04:20;;;;;;;32.58;26.05;;;5.60;99.90;;;5.55;60.38;100685.78;4962503;28;20257;-76
2021/11/25 05:06:49;;;;;;;30.85;25.95;;;5.60;99.90;;;5.51;61.04;100676.41;5033908;22;20229;-76
2021/11/25 05:09:18;;;;;;;30.50;25.70;;;5.60;99.90;;;5.41;61.46;100680.31;5049544;28;20708;-75
2021/11/25 05:11:48;;;;;;;31.75;25.83;;;5.50;99.90;;;5.48;61.04;100676.72;5057203;28;20238;-75
2021/11/25 05:14:18;;;;;;;33.35;27.35;;;5.50;99.90;;;5.37;59.93;100668.25;5058572;28;20211;-74
2021/11/25 05:16:49;;;;;;;30.73;23.95;;;5.40;99.90;;;5.38;60.25;100661.84;5053282;28;20600;-74
2021/11/25 05:19:19;;;;;;;31.30;25.25;;;5.40;99.90;;;5.44;60.09;100659.31;5053350;28;20208;-74
2021/11/25 05:21:55;;;;;;;32.53;27.05;;;5.40;99.90;;;5.41;60.33;100658.84;5053901;28;20223;-74
2021/11/25 05:24:25;;;;;;;30.88;25.33;;;5.40;99.90;;;5.34;59.88;100655.16;5054369;28;20208;-73
2021/11/25 05:26:54;;;;;;;37.97;29.08;;;5.40;99.90;;;5.31;60.45;100659.03;5053173;28;20563;-75
2021/11/25 05:29:25;;;;;;;31.27;26.75;;;5.40;99.90;;;5.46;60.15;100660.00;5054312;28;20165;-74
2021/11/25 05:31:56;;;;;;;33.72;27.73;;;5.50;99.90;;;5.44;60.50;100653.94;5053929;28;20227;-73
2021/11/25 05:34:25;;;;;;;31.65;26.58;;;5.50;99.90;;;5.48;60.33;100652.56;5054217;28;20205;-73
2021/11/25 05:36:54;;;;;;;35.10;27.55;;;5.50;99.90;;;5.34;60.90;100657.84;5054177;28;20227;-74
2021/11/25 05:39:23;;;;;;;37.88;28.40;;;5.40;99.90;;;5.27;61.29;100656.88;5054279;28;20188;-74
2021/11/25 05:41:52;;;;;;;36.60;28.85;;;5.40;99.90;;;5.27;61.45;100652.34;5052317;28;20581;-74
2021/11/25 05:44:21;;;;;;;37.88;28.80;;;5.30;99.90;;;5.32;61.33;100654.53;5036347;28;20707;-74
2021/11/25 05:46:50;;;;;;;34.10;25.73;;;5.40;99.90;;;5.21;61.67;100647.69;5054203;28;20177;-74
2021/11/25 05:49:20;;;;;;;29.98;26.13;;;5.30;99.90;;;5.32;61.69;100649.16;5053264;28;20641;-74
2021/11/25 05:51:49;;;;;;;32.50;26.38;;;5.30;99.90;;;5.53;60.41;100642.16;5053349;28;20280;-75
2021/11/25 05:54:19;;;;;;;33.25;26.60;;;5.40;99.90;;;5.40;61.70;100639.22;5049819;28;20297;-72
2021/11/25 05:56:51;;;;;;;33.92;29.13;;;5.40;99.90;;;5.38;61.49;100635.00;5049117;28;20196;-74
2021/11/25 05:59:20;;;;;;;34.80;27.67;;;5.40;99.90;;;5.24;61.59;100633.91;5054043;28;20208;-74
2021/11/25 06:01:49;;;;;;;34.33;28.15;;;5.30;99.90;;;5.38;61.14;100626.97;5053731;28;20177;-74
2021/11/25 06:04:20;;;;;;;28.40;25.23;;;5.40;99.90;;;5.39;60.57;100628.63;5052591;28;20217;-74
2021/11/25 06:06:48;;;;;;;33.78;30.30;;;5.40;99.90;;;5.24;61.45;100624.00;5053459;28;20443;-74
2021/11/25 06:09:20;;;;;;;35.40;29.00;;;5.30;99.90;;;5.32;61.36;100630.38;5052480;28;20649;-73
2021/11/25 06:11:49;;;;;;;32.45;28.55;;;5.30;99.90;;;5.38;61.70;100617.06;5054174;28;20206;-73
2021/11/25 06:14:18;;;;;;;35.45;30.73;;;5.40;99.90;;;5.36;61.81;100616.44;5052818;28;20213;-74
2021/11/25 06:16:47;;;;;;;29.10;26.00;;;5.40;99.90;;;5.26;61.05;100613.13;5052239;28;20300;-74
2021/11/25 06:19:16;;;;;;;31.80;27.52;;;5.30;99.90;;;5.28;61.28;100605.72;5052644;28;20356;-74
2021/11/25 06:21:46;;;;;;;33.65;25.60;;;5.30;99.90;;;5.22;61.16;100607.28;5052150;28;20280;-73
2021/11/25 06:24:15;;;;;;;28.75;24.60;;;5.20;99.90;;;5.33;60.90;100602.50;5053186;28;20303;-73
2021/11/25 06:26:49;;;;;;;33.55;26.60;;;5.30;99.90;;;5.34;61.31;100605.03;5052267;28;20234;-73
2021/11/25 06:29:19;;;;;;;31.20;26.15;;;5.30;99.90;;;5.24;61.27;100599.88;5052862;28;20199;-73
2021/11/25 06:31:48;;;;;;;33.22;25.73;;;5.30;99.90;;;5.53;60.94;100604.59;5052314;28;20185;-72
2021/11/25 06:34:17;;;;;;;33.65;27.50;;;5.40;99.90;;;5.45;61.53;100603.78;5053747;28;20262;-73
2021/11/25 06:36:47;;;;;;;36.83;27.50;;;5.40;99.90;;;5.59;60.95;100600.34;5054032;28;20256;-73
2021/11/25 06:39:16;;;;;;;32.53;27.40;;;5.50;99.90;;;5.40;61.25;100596.28;5053159;28;20276;-74
2021/11/25 06:41:56;;;;;;;31.27;25.77;;;5.50;99.90;;;5.38;61.43;100592.91;5056573;28;20223;-74
2021/11/25 06:44:33;;;;;;;37.60;29.27;;;5.50;99.90;;;5.37;62.25;100599.31;5054944;28;20213;-74
2021/11/25 06:47:04;;;;;;;34.72;28.95;;;5.40;99.90;;;5.51;61.71;100600.41;5056024;28;20264;-74
2021/11/25 06:49:34;;;;;;;34.60;29.45;;;5.50;99.90;;;5.38;62.29;100589.41;5057690;28;20191;-73
2021/11/25 06:52:05;;;;;;;34.65;28.98;;;5.40;99.90;;;5.18;62.74;100589.03;5057291;28;20196;-73
2021/11/25 06:54:35;;;;;;;33.00;28.10;;;5.30;99.90;;;5.18;62.68;100586.34;5055343;28;20212;-73
2021/11/25 06:57:04;;;;;;;37.55;30.17;;;5.20;99.90;;;5.26;62.81;100580.94;5055670;28;20279;-74
2021/11/25 06:59:33;;;;;;;37.42;28.30;;;5.20;99.90;;;5.53;62.63;100577.75;5056007;28;20196;-73
2021/11/25 07:02:04;;;;;;;34.58;29.63;;;5.40;99.90;;;5.51;62.30;100574.41;5055057;28;20553;-74
2021/11/25 07:04:33;;;;;;;39.63;30.83;;;5.50;99.90;;;5.30;63.47;100582.25;5056381;28;20219;-74
2021/11/25 07:07:04;;;;;;;34.72;29.23;;;5.40;99.90;;;5.22;63.75;100576.94;5053414;28;20296;-74
2021/11/25 07:09:33;;;;;;;35.58;29.25;;;5.30;99.90;;;5.18;63.57;100568.38;5052065;28;20191;-73
2021/11/25 07:12:03;;;;;;;36.00;28.88;;;5.30;99.90;;;5.46;63.28;100559.84;5052154;28;20570;-73
2021/11/25 07:14:31;;;;;;;38.28;28.15;;;5.30;99.90;;;5.46;62.90;100566.06;5052486;28;20728;-73
2021/11/25 07:17:00;;;;;;;35.05;27.40;;;5.40;99.90;;;5.45;62.91;100563.53;5051446;28;20177;-74
2021/11/25 07:19:29;;;;;;;34.42;29.10;;;5.40;99.90;;;5.46;62.53;100563.38;5052839;28;20228;-74
2021/11/25 07:21:58;;;;;;;38.17;27.23;;;5.50;99.90;;;5.37;62.58;100561.75;5052693;28;20689;-74
2021/11/25 07:24:28;;;;;;;38.10;30.33;;;5.40;99.90;;;5.47;62.90;100558.84;5052675;28;20196;-74
2021/11/25 07:26:57;;;;;;;37.33;28.05;;;5.40;99.90;;;5.76;62.60;100566.19;5051784;28;20224;-74
2021/11/25 07:29:28;;;;;;;35.42;29.20;;;5.50;99.90;;;5.77;61.85;100554.41;5051365;28;20728;-73
2021/11/25 07:31:57;;;;;;;32.42;27.48;;;5.70;99.90;;;5.60;61.39;100551.03;5053303;28;20173;-74
2021/11/25 07:34:26;;;;;;;37.20;28.92;;;5.70;99.90;;;5.53;62.30;100550.91;5053445;28;20551;-73
2021/11/25 07:36:55;;;;;;;35.90;28.08;;;5.60;99.90;;;5.68;61.70;100554.50;5051996;28;20211;-73
2021/11/25 07:39:30;;;;;;;35.00;29.02;;;5.60;99.90;;;5.52;62.33;100543.84;5053319;28;20260;-73
2021/11/25 07:41:59;;;;;;;33.85;28.38;;;5.60;99.90;;;5.75;61.05;100537.69;5051194;28;20209;-72
2021/11/25 07:44:27;;;;;;;33.60;28.73;;;5.70;99.90;;;5.56;61.11;100539.81;5051132;28;20227;-73
2021/11/25 07:46:56;;;;;;;33.88;26.23;;;5.60;99.90;;;5.51;62.17;100544.91;5051444;28;20188;-73
2021/11/25 07:49:26;;;;;;;30.42;25.52;;;5.50;99.90;;;5.60;61.62;100545.66;5050924;28;20199;-73
2021/11/25 07:51:59;;;;;;;33.85;26.23;;;5.60;99.90;;;5.54;61.73;100546.38;5052538;28;20200;-73
2021/11/25 07:54:29;;;;;;;38.42;25.75;;;5.60;99.90;;;5.35;62.55;100541.47;5052456;28;20208;-73
2021/11/25 07:57:00;;;;;;;33.33;27.02;;;5.40;99.90;;;5.44;62.54;100535.88;5051360;28;20185;-73
2021/11/25 07:59:29;;;;;;;34.20;26.00;;;5.50;99.90;;;5.52;62.47;100535.81;5052899;28;20267;-73
2021/11/25 08:01:58;;;;;;;37.63;28.80;;;5.50;99.90;;;5.60;62.14;100530.41;5052717;28;20279;-73
2021/11/25 08:04:27;;;;;;;36.53;29.20;;;5.50;99.90;;;5.65;62.47;100525.34;5053364;28;20200;-72
2021/11/25 08:06:56;;;;;;;33.67;27.83;;;5.60;99.90;;;5.65;62.15;100533.38;5055031;28;20243;-73
2021/11/25 08:09:25;;;;;;;36.22;29.00;;;5.60;99.90;;;5.49;62.75;100525.44;5055023;28;20211;-73
2021/11/25 08:11:55;;;;;;;34.83;27.73;;;5.50;99.90;;;5.52;62.90;100510.81;5055711;28;20263;-74
2021/11/25 08:14:24;;;;;;;33.75;26.27;;;5.50;99.90;;;5.78;61.75;100516.66;5056247;28;20208;-73
2021/11/25 08:16:57;;;;;;;34.05;26.73;;;5.70;99.90;;;5.58;62.31;100507.41;5056311;28;20635;-73
2021/11/25 08:19:27;;;;;;;32.22;26.83;;;5.60;99.90;;;5.82;61.92;100501.84;5056113;28;20699;-72
2021/11/25 08:21:57;;;;;;;34.22;28.20;;;5.70;99.90;;;5.85;62.02;100501.50;5054402;28;20534;-74
2021/11/25 08:24:26;;;;;;;38.90;29.52;;;5.80;99.90;;;5.83;62.95;100505.38;5055994;28;20322;-75
2021/11/25 08:26:57;;;;;;;35.28;27.67;;;5.80;99.90;;;5.78;62.50;100507.78;5055792;28;20188;-74
2021/11/25 08:29:26;;;;;;;37.78;27.38;;;5.80;99.90;;;5.85;63.10;100512.25;5055987;28;20177;-73
2021/11/25 08:31:54;;;;;;;35.55;29.83;;;5.70;99.90;;;6.00;62.25;100509.63;5055747;28;20177;-73
2021/11/25 08:34:26;;;;;;;34.00;27.27;;;5.90;99.90;;;6.00;61.95;100504.25;5056049;28;20204;-74
2021/11/25 08:36:55;;;;;;;33.55;26.60;;;6.00;99.90;;;5.98;62.06;100512.50;5054479;28;20193;-73
2021/11/25 08:39:24;;;;;;;36.67;27.02;;;6.00;99.90;;;5.86;61.83;100507.69;5054365;28;20223;-73
2021/11/25 08:42:06;;;;;;;29.85;22.35;;;5.90;99.90;;;5.77;61.76;100503.41;5054513;28;20213;-72
2021/11/25 08:44:39;;;;;;;33.83;26.30;;;5.70;99.90;;;5.90;61.61;100501.00;5057035;28;20762;-74
2021/11/25 08:47:08;;;;;;;33.00;25.77;;;5.90;99.90;;;5.99;61.41;100503.44;5056476;28;20196;-72
2021/11/25 08:49:37;;;;;;;31.63;25.10;;;5.90;99.90;;;5.90;61.58;100498.31;5055799;28;20239;-73
2021/11/25 08:52:07;;;;;;;29.85;24.75;;;5.80;99.90;;;5.86;61.98;100486.22;5063415;28;20185;-73
2021/11/25 08:54:36;;;;;;;35.15;24.45;;;5.80;99.90;;;6.05;61.68;100499.19;5077569;28;20208;-74
2021/11/25 08:57:06;;;;;;;37.35;25.42;;;5.90;99.90;;;6.00;61.97;100496.22;5076237;28;20180;-73
2021/11/25 08:59:35;;;;;;;32.20;26.10;;;6.00;99.90;;;6.00;61.42;100504.25;5076985;28;20208;-74
2021/11/25 09:02:05;;;;;;;33.95;26.23;;;6.00;99.90;;;5.77;62.10;100498.03;5077344;28;20220;-73
2021/11/25 09:04:44;;;;;;;33.47;27.15;;;5.80;99.90;;;5.83;61.95;100497.31;5077594;28;20208;-73
2021/11/25 09:07:14;;;;;;;35.72;25.95;;;5.80;99.90;;;5.94;61.61;100488.88;5076840;28;20197;-73
2021/11/25 09:09:43;;;;;;;32.85;26.70;;;5.90;99.90;;;6.00;61.34;100490.84;5076945;28;20218;-73
2021/11/25 09:12:12;;;;;;;28.52;25.20;;;5.90;99.90;;;6.06;61.40;100482.88;5066933;28;20181;-72
2021/11/25 09:14:41;;;;;;;33.17;27.02;;;6.00;99.90;;;5.87;61.23;100482.53;5054686;28;20271;-72
2021/11/25 09:17:15;;;;;;;33.70;26.00;;;6.00;99.90;;;5.83;61.37;100486.59;5055104;28;20180;-74
2021/11/25 09:19:44;;;;;;;29.27;24.23;;;5.90;99.90;;;5.77;61.80;100489.97;5054136;28;20258;-73
2021/11/25 09:22:12;;;;;;;31.20;26.05;;;5.80;99.90;;;5.95;61.66;100499.44;5054130;28;20209;-73
2021/11/25 09:24:42;;;;;;;32.22;26.08;;;5.90;99.90;;;5.87;61.67;100494.13;5053448;28;20217;-73
2021/11/25 09:27:12;;;;;;;34.65;26.70;;;5.80;99.90;;;5.81;61.71;100484.06;5054757;28;20267;-73
2021/11/25 09:29:41;;;;;;;37.03;26.17;;;5.80;99.90;;;5.94;61.55;100483.50;5054784;28;20614;-73
2021/11/25 09:32:10;;;;;;;31.70;27.52;;;5.80;99.90;;;5.99;61.65;100475.72;5053677;28;20197;-73
2021/11/25 09:34:42;;;;;;;36.60;26.77;;;5.90;99.90;;;6.19;61.50;100476.03;5053406;28;20221;-73
2021/11/25 09:37:11;;;;;;;36.42;28.63;;;6.10;99.90;;;6.20;61.38;100466.94;5053530;28;20262;-73
2021/11/25 09:39:40;;;;;;;33.38;27.30;;;6.10;99.90;;;6.00;60.96;100472.03;5053751;28;20235;-74
2021/11/25 09:42:09;;;;;;;32.45;25.33;;;6.00;99.90;;;5.97;61.68;100467.84;5054365;28;20215;-73
2021/11/25 09:44:43;;;;;;;36.53;26.08;;;6.00;99.90;;;5.84;61.33;100466.78;5052842;28;20216;-72
2021/11/25 09:47:16;;;;;;;30.60;26.38;;;5.90;99.90;;;5.93;61.96;100463.03;5053088;28;20688;-73
2021/11/25 09:49:47;;;;;;;36.80;27.60;;;5.80;99.90;;;5.75;61.79;100463.34;5052801;28;20677;-73
2021/11/25 09:52:16;;;;;;;33.67;25.80;;;5.70;99.90;;;5.78;61.80;100462.13;5054061;28;20181;-74
2021/11/25 09:54:45;;;;;;;37.00;26.70;;;5.70;99.90;;;5.76;61.62;100451.56;5053382;28;20213;-74
2021/11/25 09:57:14;;;;;;;36.65;26.77;;;5.70;99.90;;;5.68;62.36;100455.16;5052120;28;20279;-73
2021/11/25 09:59:43;;;;;;;32.78;27.13;;;5.60;99.90;;;5.87;61.93;100447.63;5053676;28;20181;-73
2021/11/25 10:02:12;;;;;;;31.08;25.85;;;5.70;99.90;;;5.87;61.55;100435.03;5053852;28;20308;-74
2021/11/25 10:04:42;;;;;;;29.38;25.08;;;5.80;99.90;;;5.79;61.61;100429.72;5069292;28;20212;-73
2021/11/25 10:07:12;;;;;;;33.67;26.42;;;5.80;99.90;;;5.77;62.08;100423.69;5054080;28;20569;-73
2021/11/25 10:09:42;;;;;;;30.25;24.70;;;5.70;99.90;;;5.83;61.95;100428.34;5070146;28;20281;-73
2021/11/25 10:12:36;;;;;;;34.17;25.90;;;5.80;99.90;;;5.88;61.82;100420.59;5070494;28;20283;-73
2021/11/25 10:15:28;;;;;;;32.65;26.55;;;5.80;99.90;;;6.01;61.85;100411.91;5055241;28;20619;-73
2021/11/25 10:18:00;;;;;;;34.15;26.40;;;5.90;99.90;;;6.02;61.81;100410.88;5055403;28;20707;-74
2021/11/25 10:20:36;;;;;;;32.83;26.85;;;6.00;99.90;;;5.91;62.13;100409.50;5053845;28;20169;-73
2021/11/25 10:23:21;;;;;;;34.03;24.88;;;5.90;99.90;;;5.78;62.16;100403.06;5069275;28;20230;-73
2021/11/25 10:25:59;;;;;;;30.58;24.05;;;5.80;99.90;;;5.61;62.47;100408.59;5053302;28;20216;-74
2021/11/25 10:28:41;;;;;;;32.78;24.85;;;5.70;99.90;;;5.79;62.30;100396.69;5052564;28;20176;-73
2021/11/25 10:31:16;;;;;;;37.50;27.92;;;5.70;99.90;;;5.73;62.91;100400.91;5068455;28;20181;-72
2021/11/25 10:33:55;;;;;;;29.75;24.15;;;5.70;99.90;;;5.63;62.60;100406.56;5053455;28;20196;-73